sensor_id;sensor_type;location;lat;lon;timestamp;pressure;altitude;pressure_sealevel;temperature;humidity
14612;BME280;7392;52.078;11.650;2023-01-09T00:01:10;99172.41;;;4.06;100.00
14612;BME280;7392;52.078;11.650;2023-01-09T00:03:38;99169.81;;;4.03;100.00
14612;BME280;7392;52.078;11.650;2023-01-09T00:06:06;99169.81;;;4.02;100.00
14612;BME280;7392;52.078;11.650;2023-01-09T00:08:33;99164.56;;;3.99;100.00
14612;BME280;7392;52.078;11.650;2023-01-09T00:11:03;99156.66;;;3.99;100.00
14612;BME280;7392;52.078;11.650;2023-01-09T00:13:30;99161.91;;;3.97;100.00
14612;BME280;7392;52.078;11.650;2023-01-09T00:15:58;99151.41;;;3.92;100.00
14612;BME280;7392;52.078;11.650;2023-01-09T00:18:25;99155.78;;;3.89;100.00
14612;BME280;7392;52.078;11.650;2023-01-09T00:20:53;99140.91;;;3.85;100.00
14612;BME280;7392;52.078;11.650;2023-01-09T00:23:21;99137.41;;;3.81;100.00
14612;BME280;7392;52.078;11.650;2023-01-09T00:25:48;99140.03;;;3.78;100.00
14612;BME280;7392;52.078;11.650;2023-01-09T00:28:17;99127.78;;;3.77;100.00
14612;BME280;7392;52.078;11.650;2023-01-09T00:30:44;99125.16;;;3.75;100.00
14612;BME280;7392;52.078;11.650;2023-01-09T00:33:23;99126.03;;;3.73;100.00
14612;BME280;7392;52.078;11.650;2023-01-09T00:35:51;99113.78;;;3.72;100.00
14612;BME280;7392;52.078;11.650;2023-01-09T00:38:19;99100.63;;;3.69;100.00
14612;BME280;7392;52.078;11.650;2023-01-09T00:40:47;99105.03;;;3.67;100.00
14612;BME280;7392;52.078;11.650;2023-01-09T00:43:16;99108.53;;;3.66;100.00
14612;BME280;7392;52.078;11.650;2023-01-09T00:45:45;99111.16;;;3.66;100.00
14612;BME280;7392;52.078;11.650;2023-01-09T00:48:16;99111.16;;;3.67;100.00
14612;BME280;7392;52.078;11.650;2023-01-09T00:50:50;99121.66;;;3.72;100.00
14612;BME280;7392;52.078;11.650;2023-01-09T00:53:20;99118.13;;;3.79;100.00
14612;BME280;7392;52.078;11.650;2023-01-09T00:55:48;99105.00;;;3.81;100.00
14612;BME280;7392;52.078;11.650;2023-01-09T00:58:18;99108.53;;;3.83;100.00
14612;BME280;7392;52.078;11.650;2023-01-09T01:00:46;99103.25;;;3.84;100.00
14612;BME280;7392;52.078;11.650;2023-01-09T01:03:13;99096.28;;;3.86;100.00
14612;BME280;7392;52.078;11.650;2023-01-09T01:05:41;99090.13;;;3.87;100.00
14612;BME280;7392;52.078;11.650;2023-01-09T01:08:26;99074.38;;;3.90;100.00
14612;BME280;7392;52.078;11.650;2023-01-09T01:10:54;99087.50;;;3.92;100.00
14612;BME280;7392;52.078;11.650;2023-01-09T01:13:23;99069.97;;;3.96;100.00
14612;BME280;7392;52.078;11.650;2023-01-09T01:15:50;99071.72;;;3.97;100.00
14612;BME280;7392;52.078;11.650;2023-01-09T01:18:18;99064.72;;;3.96;100.00
14612;BME280;7392;52.078;11.650;2023-01-09T01:20:45;99069.97;;;3.94;100.00
14612;BME280;7392;52.078;11.650;2023-01-09T01:23:13;99052.47;;;3.95;100.00
14612;BME280;7392;52.078;11.650;2023-01-09T01:25:41;99062.97;;;3.96;100.00
14612;BME280;7392;52.078;11.650;2023-01-09T01:28:09;99062.09;;;3.96;100.00
14612;BME280;7392;52.078;11.650;2023-01-09T01:30:39;99064.72;;;3.96;100.00
14612;BME280;7392;52.078;11.650;2023-01-09T01:33:08;99062.97;;;3.96;100.00
14612;BME280;7392;52.078;11.650;2023-01-09T01:35:36;99062.09;;;3.96;100.00
14612;BME280;7392;52.078;11.650;2023-01-09T01:38:04;99060.34;;;3.96;100.00
14612;BME280;7392;52.078;11.650;2023-01-09T01:40:32;99064.72;;;3.97;100.00
14612;BME280;7392;52.078;11.650;2023-01-09T01:42:59;99063.84;;;3.98;100.00
14612;BME280;7392;52.078;11.650;2023-01-09T01:45:28;99062.09;;;3.99;100.00
14612;BME280;7392;52.078;11.650;2023-01-09T01:48:03;99061.22;;;4.00;100.00
14612;BME280;7392;52.078;11.650;2023-01-09T01:50:34;99063.81;;;4.01;100.00
14612;BME280;7392;52.078;11.650;2023-01-09T01:53:08;99066.44;;;4.04;100.00
14612;BME280;7392;52.078;11.650;2023-01-09T01:55:40;99067.31;;;4.08;100.00
14612;BME280;7392;52.078;11.650;2023-01-09T01:58:13;99057.69;;;4.10;100.00
14612;BME280;7392;52.078;11.650;2023-01-09T02:00:43;99059.44;;;4.11;100.00
14612;BME280;7392;52.078;11.650;2023-01-09T02:03:14;99053.31;;;4.12;100.00
14612;BME280;7392;52.078;11.650;2023-01-09T02:05:44;99054.19;;;4.12;100.00
14612;BME280;7392;52.078;11.650;2023-01-09T02:08:11;99055.94;;;4.15;100.00
14612;BME280;7392;52.078;11.650;2023-01-09T02:10:39;99055.03;;;4.16;100.00
14612;BME280;7392;52.078;11.650;2023-01-09T02:13:08;99047.16;;;4.18;100.00
14612;BME280;7392;52.078;11.650;2023-01-09T02:15:51;99045.38;;;4.21;100.00
14612;BME280;7392;52.078;11.650;2023-01-09T02:21:23;99038.34;;;4.25;100.00
14612;BME280;7392;52.078;11.650;2023-01-09T02:24:07;99043.63;;;4.26;100.00
14612;BME280;7392;52.078;11.650;2023-01-09T02:30:22;99036.59;;;4.27;100.00
14612;BME280;7392;52.078;11.650;2023-01-09T02:33:05;99034.88;;;4.26;100.00
14612;BME280;7392;52.078;11.650;2023-01-09T02:35:47;99032.22;;;4.26;100.00
14612;BME280;7392;52.078;11.650;2023-01-09T02:38:21;99022.59;;;4.26;100.00
14612;BME280;7392;52.078;11.650;2023-01-09T02:40:58;99018.19;;;4.27;100.00
14612;BME280;7392;52.078;11.650;2023-01-09T02:43:26;99011.22;;;4.27;100.00
14612;BME280;7392;52.078;11.650;2023-01-09T02:45:55;99011.22;;;4.27;100.00
14612;BME280;7392;52.078;11.650;2023-01-09T02:48:23;98998.94;;;4.28;100.00
14612;BME280;7392;52.078;11.650;2023-01-09T02:50:58;99005.94;;;4.29;100.00
14612;BME280;7392;52.078;11.650;2023-01-09T02:53:43;98994.53;;;4.28;100.00
14612;BME280;7392;52.078;11.650;2023-01-09T02:56:25;98992.81;;;4.29;100.00
14612;BME280;7392;52.078;11.650;2023-01-09T02:59:09;98977.03;;;4.29;100.00
14612;BME280;7392;52.078;11.650;2023-01-09T03:01:48;98975.28;;;4.29;100.00
14612;BME280;7392;52.078;11.650;2023-01-09T03:04:26;98967.38;;;4.31;100.00
14612;BME280;7392;52.078;11.650;2023-01-09T03:07:01;98972.63;;;4.31;100.00
14612;BME280;7392;52.078;11.650;2023-01-09T03:09:32;98963.84;;;4.32;100.00
14612;BME280;7392;52.078;11.650;2023-01-09T03:12:08;98959.50;;;4.33;100.00
14612;BME280;7392;52.078;11.650;2023-01-09T03:14:41;98953.34;;;4.34;100.00
14612;BME280;7392;52.078;11.650;2023-01-09T03:17:14;98942.81;;;4.34;100.00
14612;BME280;7392;52.078;11.650;2023-01-09T03:19:44;98952.47;;;4.35;100.00
14612;BME280;7392;52.078;11.650;2023-01-09T03:22:12;98959.50;;;4.34;100.00
14612;BME280;7392;52.078;11.650;2023-01-09T03:24:40;98977.88;;;4.34;100.00
14612;BME280;7392;52.078;11.650;2023-01-09T03:27:08;98959.50;;;4.33;100.00
14612;BME280;7392;52.078;11.650;2023-01-09T03:29:35;98965.63;;;4.31;100.00
14612;BME280;7392;52.078;11.650;2023-01-09T03:32:03;98963.84;;;4.32;100.00
14612;BME280;7392;52.078;11.650;2023-01-09T03:34:32;98969.09;;;4.34;100.00
14612;BME280;7392;52.078;11.650;2023-01-09T03:36:59;98966.47;;;4.34;100.00
14612;BME280;7392;52.078;11.650;2023-01-09T03:39:27;98965.59;;;4.35;100.00
14612;BME280;7392;52.078;11.650;2023-01-09T03:41:55;98964.75;;;4.36;100.00
14612;BME280;7392;52.078;11.650;2023-01-09T03:44:22;98966.47;;;4.37;100.00
14612;BME280;7392;52.078;11.650;2023-01-09T03:46:50;98970.84;;;4.39;100.00
14612;BME280;7392;52.078;11.650;2023-01-09T03:49:17;98969.94;;;4.42;100.00
14612;BME280;7392;52.078;11.650;2023-01-09T03:51:46;98960.28;;;4.44;100.00
14612;BME280;7392;52.078;11.650;2023-01-09T03:54:14;98961.19;;;4.44;100.00
14612;BME280;7392;52.078;11.650;2023-01-09T03:56:41;98955.91;;;4.46;100.00
14612;BME280;7392;52.078;11.650;2023-01-09T03:59:09;98956.78;;;4.48;100.00
14612;BME280;7392;52.078;11.650;2023-01-09T04:01:37;98969.00;;;4.50;100.00
14612;BME280;7392;52.078;11.650;2023-01-09T04:04:04;98966.38;;;4.52;100.00
14612;BME280;7392;52.078;11.650;2023-01-09T04:06:32;98968.13;;;4.55;100.00
14612;BME280;7392;52.078;11.650;2023-01-09T04:09:01;98970.75;;;4.55;100.00
14612;BME280;7392;52.078;11.650;2023-01-09T04:11:29;98969.00;;;4.57;100.00
14612;BME280;7392;52.078;11.650;2023-01-09T04:13:56;98976.88;;;4.58;100.00
14612;BME280;7392;52.078;11.650;2023-01-09T04:16:24;98979.50;;;4.63;100.00
14612;BME280;7392;52.078;11.650;2023-01-09T04:18:51;98968.06;;;4.64;100.00
14612;BME280;7392;52.078;11.650;2023-01-09T04:21:19;98977.72;;;4.66;100.00
14612;BME280;7392;52.078;11.650;2023-01-09T04:23:46;98980.34;;;4.68;100.00
14612;BME280;7392;52.078;11.650;2023-01-09T04:26:15;98971.53;;;4.71;100.00
14612;BME280;7392;52.078;11.650;2023-01-09T04:28:43;98969.78;;;4.69;100.00
14612;BME280;7392;52.078;11.650;2023-01-09T04:31:10;98962.78;;;4.70;100.00
14612;BME280;7392;52.078;11.650;2023-01-09T04:33:38;98961.03;;;4.69;100.00
14612;BME280;7392;52.078;11.650;2023-01-09T04:36:06;98959.25;;;4.69;100.00
14612;BME280;7392;52.078;11.650;2023-01-09T04:38:34;98961.03;;;4.69;100.00
14612;BME280;7392;52.078;11.650;2023-01-09T04:41:01;98953.13;;;4.67;100.00
14612;BME280;7392;52.078;11.650;2023-01-09T04:43:30;98957.53;;;4.68;100.00
14612;BME280;7392;52.078;11.650;2023-01-09T04:45:58;98948.78;;;4.68;100.00
14612;BME280;7392;52.078;11.650;2023-01-09T04:48:25;98943.53;;;4.68;100.00
14612;BME280;7392;52.078;11.650;2023-01-09T04:50:53;98936.50;;;4.67;100.00
14612;BME280;7392;52.078;11.650;2023-01-09T04:53:20;98934.72;;;4.67;100.00
14612;BME280;7392;52.078;11.650;2023-01-09T04:55:48;98933.00;;;4.66;100.00
14612;BME280;7392;52.078;11.650;2023-01-09T04:58:15;98928.59;;;4.67;100.00
14612;BME280;7392;52.078;11.650;2023-01-09T05:00:44;98916.31;;;4.66;100.00
14612;BME280;7392;52.078;11.650;2023-01-09T05:03:12;98907.56;;;4.67;100.00
14612;BME280;7392;52.078;11.650;2023-01-09T05:05:39;98904.06;;;4.68;100.00
14612;BME280;7392;52.078;11.650;2023-01-09T05:08:07;98903.16;;;4.67;100.00
14612;BME280;7392;52.078;11.650;2023-01-09T05:10:34;98900.53;;;4.69;100.00
14612;BME280;7392;52.078;11.650;2023-01-09T05:13:02;98898.78;;;4.69;100.00
14612;BME280;7392;52.078;11.650;2023-01-09T05:15:29;98907.56;;;4.70;100.00
14612;BME280;7392;52.078;11.650;2023-01-09T05:17:58;98908.44;;;4.69;100.00
14612;BME280;7392;52.078;11.650;2023-01-09T05:20:26;98901.41;;;4.69;100.00
14612;BME280;7392;52.078;11.650;2023-01-09T05:22:53;98898.75;;;4.71;100.00
14612;BME280;7392;52.078;11.650;2023-01-09T05:25:21;98897.91;;;4.71;100.00
14612;BME280;7392;52.078;11.650;2023-01-09T05:27:49;98895.25;;;4.72;100.00
14612;BME280;7392;52.078;11.650;2023-01-09T05:30:17;98890.00;;;4.72;100.00
14612;BME280;7392;52.078;11.650;2023-01-09T05:32:44;98887.38;;;4.72;100.00
14612;BME280;7392;52.078;11.650;2023-01-09T05:35:13;98885.59;;;4.73;100.00
14612;BME280;7392;52.078;11.650;2023-01-09T05:37:41;98882.09;;;4.72;100.00
14612;BME280;7392;52.078;11.650;2023-01-09T05:40:10;98893.50;;;4.71;100.00
14612;BME280;7392;52.078;11.650;2023-01-09T05:42:38;98890.00;;;4.74;100.00
14612;BME280;7392;52.078;11.650;2023-01-09T05:45:07;98888.22;;;4.74;100.00
14612;BME280;7392;52.078;11.650;2023-01-09T05:47:35;98890.84;;;4.76;100.00
14612;BME280;7392;52.078;11.650;2023-01-09T05:50:03;98885.56;;;4.77;100.00
14612;BME280;7392;52.078;11.650;2023-01-09T05:52:32;98889.97;;;4.77;100.00
14612;BME280;7392;52.078;11.650;2023-01-09T05:54:59;98889.97;;;4.78;100.00
14612;BME280;7392;52.078;11.650;2023-01-09T05:57:27;98893.47;;;4.79;100.00
14612;BME280;7392;52.078;11.650;2023-01-09T05:59:55;98895.16;;;4.81;100.00
14612;BME280;7392;52.078;11.650;2023-01-09T06:02:22;98897.78;;;4.83;100.00
14612;BME280;7392;52.078;11.650;2023-01-09T06:04:50;98906.56;;;4.83;100.00
14612;BME280;7392;52.078;11.650;2023-01-09T06:07:17;98905.66;;;4.86;100.00
14612;BME280;7392;52.078;11.650;2023-01-09T06:09:50;98899.53;;;4.89;100.00
14612;BME280;7392;52.078;11.650;2023-01-09T06:12:17;98906.50;;;4.90;100.00
14612;BME280;7392;52.078;11.650;2023-01-09T06:14:45;98899.47;;;4.90;100.00
14612;BME280;7392;52.078;11.650;2023-01-09T06:17:12;98916.16;;;4.91;100.00
14612;BME280;7392;52.078;11.650;2023-01-09T06:19:40;98914.38;;;4.93;100.00
14612;BME280;7392;52.078;11.650;2023-01-09T06:22:07;98918.78;;;4.94;100.00
14612;BME280;7392;52.078;11.650;2023-01-09T06:24:35;98917.88;;;4.95;100.00
14612;BME280;7392;52.078;11.650;2023-01-09T06:27:04;98907.34;;;4.96;100.00
14612;BME280;7392;52.078;11.650;2023-01-09T06:29:31;98912.59;;;4.96;100.00
14612;BME280;7392;52.078;11.650;2023-01-09T06:31:59;98916.06;;;4.98;100.00
14612;BME280;7392;52.078;11.650;2023-01-09T06:34:27;98925.75;;;4.98;100.00
14612;BME280;7392;52.078;11.650;2023-01-09T06:36:54;98929.22;;;5.01;100.00
14612;BME280;7392;52.078;11.650;2023-01-09T06:39:22;98924.81;;;5.02;100.00
14612;BME280;7392;52.078;11.650;2023-01-09T06:41:49;98923.09;;;5.02;100.00
14612;BME280;7392;52.078;11.650;2023-01-09T06:44:18;98917.81;;;5.04;100.00
14612;BME280;7392;52.078;11.650;2023-01-09T06:46:46;98928.34;;;5.04;100.00
14612;BME280;7392;52.078;11.650;2023-01-09T06:49:13;98930.97;;;5.04;100.00
14612;BME280;7392;52.078;11.650;2023-01-09T06:51:43;98930.06;;;5.05;100.00
14612;BME280;7392;52.078;11.650;2023-01-09T06:54:10;98933.59;;;5.04;100.00
14612;BME280;7392;52.078;11.650;2023-01-09T06:56:38;98935.31;;;5.05;100.00
14612;BME280;7392;52.078;11.650;2023-01-09T06:59:05;98933.56;;;5.05;100.00
14612;BME280;7392;52.078;11.650;2023-01-09T07:01:34;98939.72;;;5.06;100.00
14612;BME280;7392;52.078;11.650;2023-01-09T07:04:02;98933.56;;;5.05;100.00
14612;BME280;7392;52.078;11.650;2023-01-09T07:06:31;98940.56;;;5.06;100.00
14612;BME280;7392;52.078;11.650;2023-01-09T07:08:59;98932.69;;;5.06;100.00
14612;BME280;7392;52.078;11.650;2023-01-09T07:11:26;98930.91;;;5.07;100.00
14612;BME280;7392;52.078;11.650;2023-01-09T07:13:54;98931.81;;;5.08;100.00
14612;BME280;7392;52.078;11.650;2023-01-09T07:16:21;98931.78;;;5.09;100.00
14612;BME280;7392;52.078;11.650;2023-01-09T07:18:51;98938.81;;;5.07;100.00
14612;BME280;7392;52.078;11.650;2023-01-09T07:21:20;98942.31;;;5.09;100.00
14612;BME280;7392;52.078;11.650;2023-01-09T07:23:47;98949.31;;;5.10;100.00
14612;BME280;7392;52.078;11.650;2023-01-09T07:26:15;98964.22;;;5.13;100.00
14612;BME280;7392;52.078;11.650;2023-01-09T07:28:42;98963.31;;;5.15;100.00
14612;BME280;7392;52.078;11.650;2023-01-09T07:31:10;98973.81;;;5.18;100.00
14612;BME280;7392;52.078;11.650;2023-01-09T07:33:38;98975.53;;;5.21;100.00
14612;BME280;7392;52.078;11.650;2023-01-09T07:36:07;98981.69;;;5.23;100.00
14612;BME280;7392;52.078;11.650;2023-01-09T07:38:36;98990.44;;;5.25;100.00
14612;BME280;7392;52.078;11.650;2023-01-09T07:41:04;98998.31;;;5.27;100.00
14612;BME280;7392;52.078;11.650;2023-01-09T07:43:31;99000.03;;;5.28;100.00
14612;BME280;7392;52.078;11.650;2023-01-09T07:45:59;98999.19;;;5.27;100.00
14612;BME280;7392;52.078;11.650;2023-01-09T07:48:27;99001.81;;;5.27;100.00
14612;BME280;7392;52.078;11.650;2023-01-09T07:50:54;98995.69;;;5.27;100.00
14612;BME280;7392;52.078;11.650;2023-01-09T07:53:23;99019.38;;;5.27;100.00
14612;BME280;7392;52.078;11.650;2023-01-09T07:55:50;99013.25;;;5.26;100.00
14612;BME280;7392;52.078;11.650;2023-01-09T07:58:18;99014.09;;;5.28;100.00
14612;BME280;7392;52.078;11.650;2023-01-09T08:00:46;99016.75;;;5.28;100.00
14612;BME280;7392;52.078;11.650;2023-01-09T08:03:13;99018.47;;;5.29;100.00
14612;BME280;7392;52.078;11.650;2023-01-09T08:05:41;99019.34;;;5.30;100.00
14612;BME280;7392;52.078;11.650;2023-01-09T08:08:08;99022.84;;;5.30;100.00
14612;BME280;7392;52.078;11.650;2023-01-09T08:10:37;99024.63;;;5.31;100.00
14612;BME280;7392;52.078;11.650;2023-01-09T08:13:05;99032.47;;;5.33;100.00
14612;BME280;7392;52.078;11.650;2023-01-09T08:15:32;99024.56;;;5.34;100.00
14612;BME280;7392;52.078;11.650;2023-01-09T08:18:00;99024.53;;;5.37;100.00
14612;BME280;7392;52.078;11.650;2023-01-09T08:20:28;99028.03;;;5.41;100.00
14612;BME280;7392;52.078;11.650;2023-01-09T08:22:56;99028.00;;;5.44;100.00
14612;BME280;7392;52.078;11.650;2023-01-09T08:25:24;99020.94;;;5.48;100.00
14612;BME280;7392;52.078;11.650;2023-01-09T08:27:52;99026.19;;;5.52;100.00
14612;BME280;7392;52.078;11.650;2023-01-09T08:30:20;99028.78;;;5.57;100.00
14612;BME280;7392;52.078;11.650;2023-01-09T08:32:49;99035.75;;;5.61;100.00
14612;BME280;7392;52.078;11.650;2023-01-09T08:35:17;99031.34;;;5.65;100.00
14612;BME280;7392;52.078;11.650;2023-01-09T08:37:44;99039.19;;;5.69;100.00
14612;BME280;7392;52.078;11.650;2023-01-09T08:40:14;99041.81;;;5.72;100.00
14612;BME280;7392;52.078;11.650;2023-01-09T08:42:42;99040.88;;;5.76;100.00
14612;BME280;7392;52.078;11.650;2023-01-09T08:45:29;99064.53;;;5.83;100.00
14612;BME280;7392;52.078;11.650;2023-01-09T08:48:14;99065.38;;;5.88;100.00
14612;BME280;7392;52.078;11.650;2023-01-09T08:50:42;99075.84;;;5.94;100.00
14612;BME280;7392;52.078;11.650;2023-01-09T08:53:10;99082.88;;;5.98;100.00
14612;BME280;7392;52.078;11.650;2023-01-09T08:55:38;99094.25;;;6.02;100.00
14612;BME280;7392;52.078;11.650;2023-01-09T08:58:06;99092.47;;;6.04;100.00
14612;BME280;7392;52.078;11.650;2023-01-09T09:00:34;99100.38;;;6.05;100.00
14612;BME280;7392;52.078;11.650;2023-01-09T09:03:02;99103.88;;;6.06;100.00
14612;BME280;7392;52.078;11.650;2023-01-09T09:05:31;99110.00;;;6.06;100.00
14612;BME280;7392;52.078;11.650;2023-01-09T09:07:59;99124.09;;;6.05;100.00
14612;BME280;7392;52.078;11.650;2023-01-09T09:10:28;99131.13;;;6.05;100.00
14612;BME280;7392;52.078;11.650;2023-01-09T09:12:57;99127.63;;;6.03;100.00
14612;BME280;7392;52.078;11.650;2023-01-09T09:15:26;99131.16;;;6.02;100.00
14612;BME280;7392;52.078;11.650;2023-01-09T09:17:57;99130.31;;;5.99;100.00
14612;BME280;7392;52.078;11.650;2023-01-09T09:20:28;99146.13;;;5.99;100.00
14612;BME280;7392;52.078;11.650;2023-01-09T09:22:56;99148.75;;;5.98;100.00
14612;BME280;7392;52.078;11.650;2023-01-09T09:25:24;99154.03;;;5.98;100.00
14612;BME280;7392;52.078;11.650;2023-01-09T09:27:51;99147.00;;;5.98;100.00
14612;BME280;7392;52.078;11.650;2023-01-09T09:30:21;99147.00;;;5.98;100.00
14612;BME280;7392;52.078;11.650;2023-01-09T09:32:49;99148.75;;;5.98;100.00
14612;BME280;7392;52.078;11.650;2023-01-09T09:35:18;99154.03;;;5.98;100.00
14612;BME280;7392;52.078;11.650;2023-01-09T09:37:55;99159.28;;;5.99;100.00
14612;BME280;7392;52.078;11.650;2023-01-09T09:40:33;99157.53;;;6.00;100.00
14612;BME280;7392;52.078;11.650;2023-01-09T09:46:21;99161.94;;;5.99;100.00
14612;BME280;7392;52.078;11.650;2023-01-09T09:48:55;99166.28;;;6.01;100.00
14612;BME280;7392;52.078;11.650;2023-01-09T09:51:37;99167.16;;;6.03;100.00
14612;BME280;7392;52.078;11.650;2023-01-09T09:54:12;99180.31;;;6.06;100.00
14612;BME280;7392;52.078;11.650;2023-01-09T09:56:45;99182.06;;;6.05;100.00
14612;BME280;7392;52.078;11.650;2023-01-09T09:59:16;99185.56;;;6.07;100.00
14612;BME280;7392;52.078;11.650;2023-01-09T10:01:50;99182.94;;;6.06;100.00
14612;BME280;7392;52.078;11.650;2023-01-09T10:04:20;99186.47;;;6.05;100.00
14612;BME280;7392;52.078;11.650;2023-01-09T10:06:55;99189.13;;;6.05;100.00
14612;BME280;7392;52.078;11.650;2023-01-09T10:09:30;99187.34;;;6.04;100.00
14612;BME280;7392;52.078;11.650;2023-01-09T10:12:09;99188.22;;;6.03;100.00
14612;BME280;7392;52.078;11.650;2023-01-09T10:14:40;99192.63;;;6.02;100.00
14612;BME280;7392;52.078;11.650;2023-01-09T10:17:19;99182.09;;;6.01;100.00
14612;BME280;7392;52.078;11.650;2023-01-09T10:20:29;99182.09;;;6.01;100.00
14612;BME280;7392;52.078;11.650;2023-01-09T10:23:06;99190.88;;;6.01;100.00
14612;BME280;7392;52.078;11.650;2023-01-09T10:25:41;99185.59;;;6.01;100.00
14612;BME280;7392;52.078;11.650;2023-01-09T10:28:22;99192.63;;;6.02;100.00
14612;BME280;7392;52.078;11.650;2023-01-09T10:30:58;99185.59;;;6.03;100.00
14612;BME280;7392;52.078;11.650;2023-01-09T10:33:39;99196.13;;;6.03;100.00
14612;BME280;7392;52.078;11.650;2023-01-09T10:36:27;99187.34;;;6.04;100.00
14612;BME280;7392;52.078;11.650;2023-01-09T10:39:01;99196.97;;;6.06;100.00
14612;BME280;7392;52.078;11.650;2023-01-09T10:41:37;99211.94;;;6.07;100.00
14612;BME280;7392;52.078;11.650;2023-01-09T10:44:24;99220.69;;;6.09;100.00
14612;BME280;7392;52.078;11.650;2023-01-09T10:46:55;99214.53;;;6.12;100.00
14612;BME280;7392;52.078;11.650;2023-01-09T10:49:25;99216.22;;;6.21;100.00
14612;BME280;7392;52.078;11.650;2023-01-09T10:52:00;99221.47;;;6.24;100.00
14612;BME280;7392;52.078;11.650;2023-01-09T10:54:32;99228.41;;;6.34;100.00
14612;BME280;7392;52.078;11.650;2023-01-09T10:57:09;99223.81;;;6.53;100.00
14612;BME280;7392;52.078;11.650;2023-01-09T10:59:39;99226.28;;;6.71;100.00
14612;BME280;7392;52.078;11.650;2023-01-09T11:02:22;99220.88;;;6.84;100.00
14612;BME280;7392;52.078;11.650;2023-01-09T11:04:52;99216.28;;;6.98;100.00
14612;BME280;7392;52.078;11.650;2023-01-09T11:07:21;99217.88;;;7.13;100.00
14612;BME280;7392;52.078;11.650;2023-01-09T11:09:59;99223.00;;;7.27;100.00
14612;BME280;7392;52.078;11.650;2023-01-09T11:12:28;99217.56;;;7.38;100.00
14612;BME280;7392;52.078;11.650;2023-01-09T11:15:17;99218.28;;;7.51;100.00
14612;BME280;7392;52.078;11.650;2023-01-09T11:17:46;99218.16;;;7.58;100.00
14612;BME280;7392;52.078;11.650;2023-01-09T11:20:15;99225.09;;;7.67;100.00
14612;BME280;7392;52.078;11.650;2023-01-09T11:22:45;99229.38;;;7.77;100.00
14612;BME280;7392;52.078;11.650;2023-01-09T11:25:16;99235.50;;;7.79;100.00
14612;BME280;7392;52.078;11.650;2023-01-09T11:28:02;99232.91;;;7.75;100.00
14612;BME280;7392;52.078;11.650;2023-01-09T11:30:32;99234.75;;;7.70;100.00
14612;BME280;7392;52.078;11.650;2023-01-09T11:33:12;99231.31;;;7.61;100.00
14612;BME280;7392;52.078;11.650;2023-01-09T11:35:56;99243.75;;;7.55;100.00
14612;BME280;7392;52.078;11.650;2023-01-09T11:38:25;99243.06;;;7.42;100.00
14612;BME280;7392;52.078;11.650;2023-01-09T11:40:56;99244.91;;;7.35;100.00
14612;BME280;7392;52.078;11.650;2023-01-09T11:43:30;99233.53;;;7.28;100.00
14612;BME280;7392;52.078;11.650;2023-01-09T11:46:02;99248.53;;;7.25;100.00
14612;BME280;7392;52.078;11.650;2023-01-09T11:48:33;99247.72;;;7.21;100.00
14612;BME280;7392;52.078;11.650;2023-01-09T11:51:04;99247.75;;;7.18;100.00
14612;BME280;7392;52.078;11.650;2023-01-09T11:53:44;99253.06;;;7.15;100.00
14612;BME280;7392;52.078;11.650;2023-01-09T11:56:16;99251.34;;;7.14;100.00
14612;BME280;7392;52.078;11.650;2023-01-09T11:58:44;99245.16;;;7.12;100.00
14612;BME280;7392;52.078;11.650;2023-01-09T12:01:29;99251.34;;;7.11;100.00
14612;BME280;7392;52.078;11.650;2023-01-09T12:04:12;99251.34;;;7.11;100.00
14612;BME280;7392;52.078;11.650;2023-01-09T12:06:52;99243.44;;;7.11;100.00
14612;BME280;7392;52.078;11.650;2023-01-09T12:09:27;99239.91;;;7.10;100.00
14612;BME280;7392;52.078;11.650;2023-01-09T12:12:11;99239.88;;;7.12;100.00
14612;BME280;7392;52.078;11.650;2023-01-09T12:14:53;99230.25;;;7.11;100.00
14612;BME280;7392;52.078;11.650;2023-01-09T12:17:38;99235.50;;;7.13;100.00
14612;BME280;7392;52.078;11.650;2023-01-09T12:20:25;99223.16;;;7.15;100.00
14612;BME280;7392;52.078;11.650;2023-01-09T12:23:06;99222.16;;;7.23;100.00
14612;BME280;7392;52.078;11.650;2023-01-09T12:25:47;99224.53;;;7.45;100.00
14612;BME280;7392;52.078;11.650;2023-01-09T12:28:49;99225.94;;;7.69;100.00
14612;BME280;7392;52.078;11.650;2023-01-09T12:31:32;99233.69;;;7.81;100.00
14612;BME280;7392;52.078;11.650;2023-01-09T12:34:19;99232.56;;;7.98;100.00
14612;BME280;7392;52.078;11.650;2023-01-09T12:37:00;99226.97;;;8.16;100.00
14612;BME280;7392;52.078;11.650;2023-01-09T12:39:42;99234.63;;;8.33;100.00
14612;BME280;7392;52.078;11.650;2023-01-09T12:42:35;99218.53;;;8.49;99.99
14612;BME280;7392;52.078;11.650;2023-01-09T12:45:24;99220.06;;;8.60;97.00
14612;BME280;7392;52.078;11.650;2023-01-09T12:48:01;99223.47;;;8.69;94.40
14612;BME280;7392;52.078;11.650;2023-01-09T12:50:49;99212.59;;;8.83;93.47
14612;BME280;7392;52.078;11.650;2023-01-09T12:53:23;99223.06;;;8.90;91.72
14612;BME280;7392;52.078;11.650;2023-01-09T12:55:55;99221.13;;;8.98;91.57
14612;BME280;7392;52.078;11.650;2023-01-09T12:58:31;99220.16;;;9.03;88.89
14612;BME280;7392;52.078;11.650;2023-01-09T13:01:04;99215.56;;;9.12;89.21
14612;BME280;7392;52.078;11.650;2023-01-09T13:03:38;99217.28;;;9.13;88.69
14612;BME280;7392;52.078;11.650;2023-01-09T13:06:13;99223.41;;;9.17;88.73
14612;BME280;7392;52.078;11.650;2023-01-09T13:08:46;99214.63;;;9.15;87.22
14612;BME280;7392;52.078;11.650;2023-01-09T13:11:21;99226.31;;;9.03;86.95
14612;BME280;7392;52.078;11.650;2023-01-09T13:13:54;99229.22;;;8.91;87.45
14612;BME280;7392;52.078;11.650;2023-01-09T13:16:28;99231.28;;;8.76;87.28
14612;BME280;7392;52.078;11.650;2023-01-09T13:19:02;99232.41;;;8.63;87.71
14612;BME280;7392;52.078;11.650;2023-01-09T13:21:32;99228.22;;;8.50;88.39
14612;BME280;7392;52.078;11.650;2023-01-09T13:24:05;99230.13;;;8.38;89.55
14612;BME280;7392;52.078;11.650;2023-01-09T13:26:40;99232.94;;;8.29;90.52
14612;BME280;7392;52.078;11.650;2023-01-09T13:29:14;99238.31;;;8.24;91.16
14612;BME280;7392;52.078;11.650;2023-01-09T13:32:27;99247.25;;;8.16;90.91